Tests — V7NV7 — position and weather

sailwx.info

Track history (hours):
 
Tides and Currents Weather Stations Pressure Air Temp Water Temp Dewpoint Dewpoint Depression Visibility Wind Speed Wind Dir Waves Ship Positions

Tests

Last reported at 2014-Nov-20 03:11 UTC. Time now 2014-Nov-26 00:24 UTC.
Position N 54°19' E 007°03'.

Length 37 m; draft 5.7 m.

Type: Cargo ship. MMSI: 438003028.

Date/timePositionNaut miles runAvg speedWind from/ knotsBaromVisibWave heightAir tempDewpointWater temp
2014-Nov-20 03:11N 54°19' E 007°03'710.8
2014-Nov-20 02:33N 54°16' E 007°14'1110.6
2014-Nov-20 01:33N 54°10' E 007°29'1111.1
2014-Nov-20 00:33N 54°01' E 007°39'1010.3
2014-Nov-19 23:33N 53°53' E 007°49'1110.7
2014-Nov-19 22:33N 53°45' E 008°03'1212.2
2014-Nov-19 21:33N 53°34' E 008°10'3 2.6
2014-Nov-19 20:33N 53°32' E 008°09'0 0.3
2014-Nov-19 19:31N 53°31' E 008°09'0 0.0
2014-Nov-19 18:31N 53°31' E 008°09'0 0.0
2014-Nov-19 17:31N 53°31' E 008°09'0 0.0
2014-Nov-19 16:31N 53°31' E 008°09'0 0.0
2014-Nov-19 15:31N 53°31' E 008°09'0 0.0
2014-Nov-19 14:31N 53°31' E 008°09'0 0.0
2014-Nov-19 13:31N 53°31' E 008°09'0 0.0
2014-Nov-19 12:31N 53°31' E 008°09'0 0.0
2014-Nov-19 11:28N 53°31' E 008°09'0 0.0
2014-Nov-19 10:25N 53°31' E 008°09'0 0.0
2014-Nov-19 09:31N 53°31' E 008°09'0 0.0
2014-Nov-19 08:31N 53°31' E 008°09'0 0.0
2014-Nov-19 07:31N 53°31' E 008°09'0 0.0
2014-Nov-19 06:33N 53°31' E 008°09'0 0.5
2014-Nov-19 05:33N 53°32' E 008°10'6 6.2
2014-Nov-19 04:33N 53°38' E 008°08'1312.7
2014-Nov-19 03:33N 53°49' E 007°57'1110.0
2014-Nov-19 02:31N 53°54' E 007°42'8 8.4
2014-Nov-19 01:33N 54°01' E 007°35'8 7.9
2014-Nov-19 00:33N 54°08' E 007°29'8 7.9
2014-Nov-18 23:33N 54°14' E 007°20'9 8.9
2014-Nov-18 22:33N 54°17' E 007°06'  
2014-Nov-12 14:30N 54°13' E 007°09'1111.8
2014-Nov-12 13:33N 54°12' E 007°28'1212.0
2014-Nov-12 12:33N 54°01' E 007°38'1211.1
2014-Nov-12 11:28N 53°52' E 007°51'7 7.9
2014-Nov-12 10:33N 53°48' E 008°01'1110.6
2014-Nov-12 09:33N 53°38' E 008°08'7 6.5
2014-Nov-12 08:33N 53°32' E 008°10'1 1.2
2014-Nov-12 07:33N 53°31' E 008°08'0 0.0
2014-Nov-12 06:31N 53°31' E 008°08'0 0.0
2014-Nov-12 05:31N 53°31' E 008°08'0 0.0
2014-Nov-12 04:31N 53°31' E 008°08'0 0.0
2014-Nov-12 03:31N 53°31' E 008°08'0 0.0
2014-Nov-12 02:31N 53°31' E 008°08'0 0.0
2014-Nov-12 01:31N 53°31' E 008°08'0 0.0
2014-Nov-12 00:31N 53°31' E 008°08'0 0.0
2014-Nov-11 23:28N 53°31' E 008°08'0 0.0
2014-Nov-11 22:31N 53°31' E 008°08'0 0.0
2014-Nov-11 21:31N 53°31' E 008°08'0 0.0
2014-Nov-11 20:31N 53°31' E 008°08'0 0.0
2014-Nov-11 19:31N 53°31' E 008°08'0 0.0
2014-Nov-11 18:31N 53°31' E 008°08'0 0.0
2014-Nov-11 17:31N 53°31' E 008°08'0 0.0
2014-Nov-11 16:31N 53°31' E 008°08'0 0.0
2014-Nov-11 15:25N 53°31' E 008°08'0 0.0
2014-Nov-11 14:31N 53°31' E 008°08'0 0.0
2014-Nov-11 13:31N 53°31' E 008°08'0 0.0
2014-Nov-11 12:28N 53°31' E 008°08'0 0.0
2014-Nov-11 11:28N 53°31' E 008°08'0 0.0
2014-Nov-11 10:31N 53°31' E 008°08'0 0.0
2014-Nov-11 09:31N 53°31' E 008°08'0 0.0
2014-Nov-11 08:31N 53°31' E 008°08'0 0.0
2014-Nov-11 07:28N 53°31' E 008°08'0 0.0
2014-Nov-11 06:28N 53°31' E 008°08'0 0.0
2014-Nov-11 05:31N 53°31' E 008°08'0 0.0
2014-Nov-11 04:31N 53°31' E 008°08'0 0.0
2014-Nov-11 03:31N 53°31' E 008°08'0 0.0
2014-Nov-11 02:31N 53°31' E 008°08'0 0.0
2014-Nov-11 01:31N 53°31' E 008°08'0 0.0
2014-Nov-11 00:28N 53°31' E 008°08'0 0.0
2014-Nov-10 23:31N 53°31' E 008°08'0 0.0
2014-Nov-10 22:31N 53°31' E 008°08'0 0.0
2014-Nov-10 21:31N 53°31' E 008°08'0 0.0
2014-Nov-10 20:31N 53°31' E 008°08'0 0.0
2014-Nov-10 19:31N 53°31' E 008°08'0 0.0
2014-Nov-10 18:31N 53°31' E 008°08'0 0.0
2014-Nov-10 17:31N 53°31' E 008°08'0 0.0
2014-Nov-10 16:28N 53°31' E 008°08'0 0.0
2014-Nov-10 15:28N 53°31' E 008°08'0 0.0
2014-Nov-10 14:31N 53°31' E 008°08'0 0.0
2014-Nov-10 13:31N 53°31' E 008°08'0 0.0
2014-Nov-10 12:31N 53°31' E 008°08'0 0.0
2014-Nov-10 11:31N 53°31' E 008°08'0 0.0
2014-Nov-10 10:31N 53°31' E 008°08'0 0.0
2014-Nov-10 09:31N 53°31' E 008°08'0 0.0
2014-Nov-10 08:31N 53°31' E 008°08'0 0.0
2014-Nov-10 07:31N 53°31' E 008°08'0 0.0
2014-Nov-10 06:31N 53°31' E 008°08'0 0.0
2014-Nov-10 05:31N 53°31' E 008°08'0 0.0
2014-Nov-10 04:31N 53°31' E 008°08'0 0.0
2014-Nov-10 03:31N 53°31' E 008°08'  
Track history (hours):
 
Tides and Currents Weather Stations Pressure Air Temp Water Temp Dewpoint Dewpoint Depression Visibility Wind Speed Wind Dir Waves Ship Positions

Tests

Last reported at 2014-Nov-20 03:11 UTC. Time now 2014-Nov-26 00:24 UTC.
Position N 54°19' E 007°03'.

Length 37 m; draft 5.7 m.

Type: Cargo ship. MMSI: 438003028.

Date/timePositionNaut miles runAvg speedWind from/ knotsBaromVisibWave heightAir tempDewpointWater temp
2014-Nov-20 03:11N 54°19' E 007°03'710.8
2014-Nov-20 02:33N 54°16' E 007°14'1110.6
2014-Nov-20 01:33N 54°10' E 007°29'1111.1
2014-Nov-20 00:33N 54°01' E 007°39'1010.3
2014-Nov-19 23:33N 53°53' E 007°49'1110.7
2014-Nov-19 22:33N 53°45' E 008°03'1212.2
2014-Nov-19 21:33N 53°34' E 008°10'3 2.6
2014-Nov-19 20:33N 53°32' E 008°09'0 0.3
2014-Nov-19 19:31N 53°31' E 008°09'0 0.0
2014-Nov-19 18:31N 53°31' E 008°09'0 0.0
2014-Nov-19 17:31N 53°31' E 008°09'0 0.0
2014-Nov-19 16:31N 53°31' E 008°09'0 0.0
2014-Nov-19 15:31N 53°31' E 008°09'0 0.0
2014-Nov-19 14:31N 53°31' E 008°09'0 0.0
2014-Nov-19 13:31N 53°31' E 008°09'0 0.0
2014-Nov-19 12:31N 53°31' E 008°09'0 0.0
2014-Nov-19 11:28N 53°31' E 008°09'0 0.0
2014-Nov-19 10:25N 53°31' E 008°09'0 0.0
2014-Nov-19 09:31N 53°31' E 008°09'0 0.0
2014-Nov-19 08:31N 53°31' E 008°09'0 0.0
2014-Nov-19 07:31N 53°31' E 008°09'0 0.0
2014-Nov-19 06:33N 53°31' E 008°09'0 0.5
2014-Nov-19 05:33N 53°32' E 008°10'6 6.2
2014-Nov-19 04:33N 53°38' E 008°08'1312.7
2014-Nov-19 03:33N 53°49' E 007°57'1110.0
2014-Nov-19 02:31N 53°54' E 007°42'8 8.4
2014-Nov-19 01:33N 54°01' E 007°35'8 7.9
2014-Nov-19 00:33N 54°08' E 007°29'8 7.9
2014-Nov-18 23:33N 54°14' E 007°20'9 8.9
2014-Nov-18 22:33N 54°17' E 007°06'  
2014-Nov-12 14:30N 54°13' E 007°09'1111.8
2014-Nov-12 13:33N 54°12' E 007°28'1212.0
2014-Nov-12 12:33N 54°01' E 007°38'1211.1
2014-Nov-12 11:28N 53°52' E 007°51'7 7.9
2014-Nov-12 10:33N 53°48' E 008°01'1110.6
2014-Nov-12 09:33N 53°38' E 008°08'7 6.5
2014-Nov-12 08:33N 53°32' E 008°10'1 1.2
2014-Nov-12 07:33N 53°31' E 008°08'0 0.0
2014-Nov-12 06:31N 53°31' E 008°08'0 0.0
2014-Nov-12 05:31N 53°31' E 008°08'0 0.0
2014-Nov-12 04:31N 53°31' E 008°08'0 0.0
2014-Nov-12 03:31N 53°31' E 008°08'0 0.0
2014-Nov-12 02:31N 53°31' E 008°08'0 0.0
2014-Nov-12 01:31N 53°31' E 008°08'0 0.0
2014-Nov-12 00:31N 53°31' E 008°08'0 0.0
2014-Nov-11 23:28N 53°31' E 008°08'0 0.0
2014-Nov-11 22:31N 53°31' E 008°08'0 0.0
2014-Nov-11 21:31N 53°31' E 008°08'0 0.0
2014-Nov-11 20:31N 53°31' E 008°08'0 0.0
2014-Nov-11 19:31N 53°31' E 008°08'0 0.0
2014-Nov-11 18:31N 53°31' E 008°08'0 0.0
2014-Nov-11 17:31N 53°31' E 008°08'0 0.0
2014-Nov-11 16:31N 53°31' E 008°08'0 0.0
2014-Nov-11 15:25N 53°31' E 008°08'0 0.0
2014-Nov-11 14:31N 53°31' E 008°08'0 0.0
2014-Nov-11 13:31N 53°31' E 008°08'0 0.0
2014-Nov-11 12:28N 53°31' E 008°08'0 0.0
2014-Nov-11 11:28N 53°31' E 008°08'0 0.0
2014-Nov-11 10:31N 53°31' E 008°08'0 0.0
2014-Nov-11 09:31N 53°31' E 008°08'0 0.0
2014-Nov-11 08:31N 53°31' E 008°08'0 0.0
2014-Nov-11 07:28N 53°31' E 008°08'0 0.0
2014-Nov-11 06:28N 53°31' E 008°08'0 0.0
2014-Nov-11 05:31N 53°31' E 008°08'0 0.0
2014-Nov-11 04:31N 53°31' E 008°08'0 0.0
2014-Nov-11 03:31N 53°31' E 008°08'0 0.0
2014-Nov-11 02:31N 53°31' E 008°08'0 0.0
2014-Nov-11 01:31N 53°31' E 008°08'0 0.0
2014-Nov-11 00:28N 53°31' E 008°08'0 0.0
2014-Nov-10 23:31N 53°31' E 008°08'0 0.0
2014-Nov-10 22:31N 53°31' E 008°08'0 0.0
2014-Nov-10 21:31N 53°31' E 008°08'0 0.0
2014-Nov-10 20:31N 53°31' E 008°08'0 0.0
2014-Nov-10 19:31N 53°31' E 008°08'0 0.0
2014-Nov-10 18:31N 53°31' E 008°08'0 0.0
2014-Nov-10 17:31N 53°31' E 008°08'0 0.0
2014-Nov-10 16:28N 53°31' E 008°08'0 0.0
2014-Nov-10 15:28N 53°31' E 008°08'0 0.0
2014-Nov-10 14:31N 53°31' E 008°08'0 0.0
2014-Nov-10 13:31N 53°31' E 008°08'0 0.0
2014-Nov-10 12:31N 53°31' E 008°08'0 0.0
2014-Nov-10 11:31N 53°31' E 008°08'0 0.0
2014-Nov-10 10:31N 53°31' E 008°08'0 0.0
2014-Nov-10 09:31N 53°31' E 008°08'0 0.0
2014-Nov-10 08:31N 53°31' E 008°08'0 0.0
2014-Nov-10 07:31N 53°31' E 008°08'0 0.0
2014-Nov-10 06:31N 53°31' E 008°08'0 0.0
2014-Nov-10 05:31N 53°31' E 008°08'0 0.0
2014-Nov-10 04:31N 53°31' E 008°08'0 0.0
2014-Nov-10 03:31N 53°31' E 008°08'  

Dump ship's entire track history